createdAt,value
2019-01-30T00:01:38.761Z,6.73
2019-01-30T00:04:08.102Z,6.80
2019-01-30T00:06:37.434Z,6.33
2019-01-30T00:09:09.667Z,6.27
2019-01-30T00:11:39.384Z,6.93
2019-01-30T00:14:08.835Z,7.03
2019-01-30T00:16:41.114Z,6.53
2019-01-30T00:19:10.545Z,7.00
2019-01-30T00:21:43.256Z,6.63
2019-01-30T00:24:12.509Z,7.27
2019-01-30T00:26:41.839Z,6.63
2019-01-30T00:29:11.082Z,7.65
2019-01-30T00:31:40.416Z,6.50
2019-01-30T00:36:44.892Z,6.13
2019-01-30T00:39:14.162Z,6.07
2019-01-30T00:41:43.493Z,6.80
2019-01-30T00:44:12.742Z,6.47
2019-01-30T00:46:42.002Z,5.97
2019-01-30T00:49:11.334Z,6.03
2019-01-30T00:51:43.295Z,6.27
2019-01-30T00:54:12.224Z,5.30
2019-01-30T00:56:40.938Z,5.70
2019-01-30T00:59:09.659Z,5.93
2019-01-30T01:01:38.386Z,6.57
2019-01-30T01:04:07.222Z,5.90
2019-01-30T01:06:35.927Z,5.83
2019-01-30T01:09:08.052Z,6.37
2019-01-30T01:11:36.790Z,6.03
2019-01-30T01:14:05.493Z,6.00
2019-01-30T01:16:34.195Z,5.77
2019-01-30T01:19:02.905Z,6.10
2019-01-30T01:21:31.608Z,6.27
2019-01-30T01:24:00.327Z,6.50
2019-01-30T01:26:29.022Z,5.80
2019-01-30T01:28:57.726Z,6.10
2019-01-30T01:31:26.482Z,5.77
2019-01-30T01:33:55.196Z,5.80
2019-01-30T01:36:23.929Z,5.97
2019-01-30T01:38:52.623Z,5.37
2019-01-30T01:41:21.297Z,5.50
2019-01-30T01:43:50.036Z,5.87
2019-01-30T01:46:18.716Z,6.20
2019-01-30T01:48:49.869Z,5.60
2019-01-30T01:51:18.589Z,6.20
2019-01-30T01:53:47.290Z,5.50
2019-01-30T01:56:15.989Z,5.80
2019-01-30T01:58:44.714Z,5.10
2019-01-30T02:01:13.390Z,5.30
2019-01-30T02:03:42.101Z,5.37
2019-01-30T02:06:10.818Z,5.27
2019-01-30T02:08:39.497Z,5.63
2019-01-30T02:11:08.210Z,5.27
2019-01-30T02:13:36.917Z,5.40
2019-01-30T02:16:05.699Z,5.50
2019-01-30T02:18:34.390Z,5.93
2019-01-30T02:21:03.254Z,4.60
2019-01-30T02:23:31.936Z,5.33
2019-01-30T02:26:00.703Z,5.13
2019-01-30T02:28:29.622Z,5.07
2019-01-30T02:30:58.332Z,5.23
2019-01-30T02:33:27.076Z,5.30
2019-01-30T02:35:55.776Z,4.83
2019-01-30T02:38:24.463Z,5.00
2019-01-30T02:40:53.175Z,5.00
2019-01-30T02:43:21.873Z,5.30
2019-01-30T02:45:50.546Z,5.00
2019-01-30T02:48:19.299Z,5.07
2019-01-30T02:50:48.069Z,5.23
2019-01-30T02:53:16.778Z,5.33
2019-01-30T02:55:45.494Z,5.20
2019-01-30T02:58:14.191Z,5.63
2019-01-30T03:00:42.909Z,5.00
2019-01-30T03:03:11.702Z,5.03
2019-01-30T03:05:40.401Z,5.13
2019-01-30T03:08:09.111Z,5.20
2019-01-30T03:10:37.787Z,4.90
2019-01-30T03:13:06.771Z,5.27
2019-01-30T03:15:35.473Z,5.20
2019-01-30T03:18:04.149Z,4.90
2019-01-30T03:20:32.878Z,4.87
2019-01-30T03:23:01.594Z,4.97
2019-01-30T03:25:30.292Z,5.10
2019-01-30T03:27:59.017Z,4.93
2019-01-30T03:30:28.840Z,5.28
2019-01-30T03:32:57.587Z,5.63
2019-01-30T03:35:26.275Z,5.20
2019-01-30T03:37:54.985Z,5.37
2019-01-30T03:40:23.889Z,5.50
2019-01-30T03:42:52.613Z,5.30
2019-01-30T03:45:21.814Z,5.30
2019-01-30T03:47:50.608Z,5.07
2019-01-30T03:50:19.327Z,5.20
2019-01-30T03:52:48.018Z,4.57
2019-01-30T03:55:17.075Z,5.17
2019-01-30T03:57:45.863Z,4.53
2019-01-30T04:00:18.804Z,4.50
2019-01-30T04:02:47.534Z,4.67
2019-01-30T04:05:16.287Z,5.13
2019-01-30T04:07:45.043Z,4.63
2019-01-30T04:10:15.006Z,4.93
2019-01-30T04:12:43.761Z,4.67
2019-01-30T04:15:12.573Z,5.30
2019-01-30T04:17:41.313Z,4.90
2019-01-30T04:20:10.535Z,4.83
2019-01-30T04:22:39.251Z,5.08
2019-01-30T04:25:08.540Z,4.87
2019-01-30T04:27:37.288Z,5.10
2019-01-30T04:30:07.270Z,5.27
2019-01-30T04:32:36.002Z,4.90
2019-01-30T04:35:05.316Z,5.62
2019-01-30T04:37:34.037Z,5.20
2019-01-30T04:40:02.771Z,5.30
2019-01-30T04:42:31.491Z,5.07
2019-01-30T04:45:00.293Z,4.90
2019-01-30T04:47:29.043Z,5.23
2019-01-30T04:49:57.783Z,5.57
2019-01-30T04:52:26.522Z,4.93
2019-01-30T04:54:55.223Z,5.20
2019-01-30T04:57:23.948Z,5.03
2019-01-30T04:59:52.669Z,5.13
2019-01-30T05:02:21.429Z,4.83
2019-01-30T05:04:50.124Z,4.57
2019-01-30T05:07:18.992Z,4.27
2019-01-30T05:09:47.727Z,4.10
2019-01-30T05:12:16.419Z,5.10
2019-01-30T05:14:45.167Z,4.50
2019-01-30T05:17:13.874Z,4.63
2019-01-30T05:19:42.613Z,4.10
2019-01-30T05:22:11.369Z,4.40
2019-01-30T05:24:40.089Z,4.70
2019-01-30T05:27:08.933Z,4.33
2019-01-30T05:29:37.747Z,4.27
2019-01-30T05:32:06.499Z,4.37
2019-01-30T05:34:35.228Z,4.30
2019-01-30T05:37:03.959Z,4.20
2019-01-30T05:39:32.683Z,4.90
2019-01-30T05:42:01.440Z,4.50
2019-01-30T05:44:30.199Z,5.20
2019-01-30T05:46:58.929Z,4.30
2019-01-30T05:49:31.046Z,4.70
2019-01-30T05:52:00.042Z,4.80
2019-01-30T05:54:28.744Z,4.27
2019-01-30T05:56:57.459Z,4.87
2019-01-30T05:59:26.257Z,4.70
2019-01-30T06:01:55.016Z,4.87
2019-01-30T06:04:23.716Z,4.67
2019-01-30T06:06:52.462Z,4.83
2019-01-30T06:09:21.198Z,4.80
2019-01-30T06:11:49.986Z,5.17
2019-01-30T06:14:21.802Z,4.70
2019-01-30T06:16:50.557Z,5.00
2019-01-30T06:19:19.330Z,5.40
2019-01-30T06:21:48.026Z,5.30
2019-01-30T06:24:16.750Z,5.67
2019-01-30T06:26:45.511Z,5.47
2019-01-30T06:29:16.867Z,5.72
2019-01-30T06:31:45.600Z,5.90
2019-01-30T06:34:14.382Z,6.13
2019-01-30T06:36:43.220Z,6.10
2019-01-30T06:39:11.935Z,6.23
2019-01-30T06:41:40.697Z,6.17
2019-01-30T06:44:09.546Z,7.17
2019-01-30T06:46:38.291Z,7.13
2019-01-30T06:49:07.299Z,6.60
2019-01-30T06:51:36.079Z,7.33
2019-01-30T06:54:04.901Z,8.10
2019-01-30T06:56:33.723Z,7.37
2019-01-30T06:59:02.538Z,7.57
2019-01-30T07:01:31.259Z,7.43
2019-01-30T07:04:00.078Z,7.53
2019-01-30T07:06:28.858Z,7.83
2019-01-30T07:08:57.703Z,7.80
2019-01-30T07:11:26.524Z,8.43
2019-01-30T07:13:55.241Z,8.20
2019-01-30T07:16:24.094Z,8.67
2019-01-30T07:18:52.844Z,8.40
2019-01-30T07:21:21.579Z,8.00
2019-01-30T07:23:50.315Z,8.10
2019-01-30T07:26:19.372Z,8.47
2019-01-30T07:28:48.079Z,8.63
2019-01-30T07:31:19.207Z,8.53
2019-01-30T07:33:47.230Z,8.80
2019-01-30T07:36:16.058Z,8.80
2019-01-30T07:38:44.759Z,8.37
2019-01-30T07:41:13.467Z,8.90
2019-01-30T07:43:42.283Z,9.80
2019-01-30T07:46:11.007Z,9.73
2019-01-30T07:48:39.724Z,9.07
2019-01-30T07:51:08.486Z,9.30
2019-01-30T07:53:37.199Z,8.80
2019-01-30T07:56:05.892Z,10.43
2019-01-30T07:58:34.709Z,9.00
2019-01-30T08:01:03.435Z,8.80
2019-01-30T08:03:32.191Z,9.30
2019-01-30T08:06:00.915Z,9.80
2019-01-30T08:08:29.765Z,8.47
2019-01-30T08:10:58.489Z,10.20
2019-01-30T08:13:27.250Z,9.40
2019-01-30T08:15:55.988Z,9.47
2019-01-30T08:18:24.728Z,10.27
2019-01-30T08:20:53.456Z,9.43
2019-01-30T08:23:22.478Z,9.70
2019-01-30T08:25:51.721Z,9.83
2019-01-30T08:28:20.695Z,8.83
2019-01-30T08:30:49.759Z,9.63
2019-01-30T08:33:21.523Z,9.00
2019-01-30T08:35:49.570Z,9.50
2019-01-30T08:38:18.439Z,9.60
2019-01-30T08:40:47.334Z,9.43
2019-01-30T08:43:16.154Z,9.27
2019-01-30T08:45:44.927Z,9.30
2019-01-30T08:48:13.647Z,9.50
2019-01-30T08:50:42.399Z,9.87
2019-01-30T08:53:11.131Z,9.80
2019-01-30T08:55:39.902Z,10.20
2019-01-30T08:58:08.606Z,8.80
2019-01-30T09:00:37.349Z,9.27
2019-01-30T09:03:14.596Z,9.07
2019-01-30T09:05:36.645Z,9.27
2019-01-30T09:08:05.597Z,9.07
2019-01-30T09:10:34.360Z,9.57
2019-01-30T09:13:03.073Z,10.20
2019-01-30T09:15:31.840Z,8.80
2019-01-30T09:18:00.641Z,9.47
2019-01-30T09:20:29.470Z,9.40
2019-01-30T09:22:58.888Z,9.30
2019-01-30T09:25:28.704Z,9.77
2019-01-30T09:27:57.960Z,9.30
2019-01-30T09:30:27.881Z,9.50
2019-01-30T09:32:57.622Z,9.40
2019-01-30T09:35:26.439Z,10.37
2019-01-30T09:37:55.588Z,9.27
2019-01-30T09:40:24.681Z,9.00
2019-01-30T09:42:53.550Z,9.13
2019-01-30T09:45:22.799Z,9.40
2019-01-30T09:47:51.579Z,9.50
2019-01-30T09:50:20.406Z,10.50
2019-01-30T09:52:51.178Z,10.03
2019-01-30T09:55:19.928Z,10.17
2019-01-30T09:57:48.822Z,9.73
2019-01-30T10:00:25.698Z,10.50
2019-01-30T10:02:54.430Z,10.10
2019-01-30T10:05:23.201Z,10.17
2019-01-30T10:07:51.938Z,9.67
2019-01-30T10:10:22.057Z,11.10
2019-01-30T10:12:50.798Z,9.60
2019-01-30T10:15:20.180Z,10.07
2019-01-30T10:17:48.974Z,11.30
2019-01-30T10:20:19.014Z,10.07
2019-01-30T10:22:47.817Z,10.57
2019-01-30T10:25:16.659Z,10.63
2019-01-30T10:27:55.871Z,10.83
2019-01-30T10:30:25.920Z,10.83
2019-01-30T10:32:54.649Z,11.07
2019-01-30T10:35:23.519Z,11.77
2019-01-30T10:37:52.328Z,11.23
2019-01-30T10:40:21.115Z,10.87
2019-01-30T10:42:49.839Z,11.27
2019-01-30T10:45:18.774Z,11.60
2019-01-30T10:47:47.516Z,11.67
2019-01-30T10:50:17.333Z,12.20
2019-01-30T10:52:46.097Z,13.07
2019-01-30T10:55:16.182Z,12.67
2019-01-30T10:57:44.940Z,13.20
2019-01-30T11:00:16.123Z,12.43
2019-01-30T11:02:46.434Z,11.97
2019-01-30T11:05:16.027Z,12.47
2019-01-30T11:07:44.776Z,12.67
2019-01-30T11:10:14.178Z,11.97
2019-01-30T11:12:43.104Z,13.10
2019-01-30T11:15:13.121Z,13.40
2019-01-30T11:17:41.886Z,12.63
2019-01-30T11:20:11.672Z,11.77
2019-01-30T11:22:40.393Z,12.93
2019-01-30T11:25:11.106Z,11.90
2019-01-30T11:27:39.866Z,11.53
2019-01-30T11:30:09.135Z,12.93
2019-01-30T11:32:37.926Z,12.73
2019-01-30T11:35:06.724Z,12.03
2019-01-30T11:37:35.519Z,12.30
2019-01-30T11:40:05.292Z,13.07
2019-01-30T11:42:34.028Z,12.27
2019-01-30T11:45:02.811Z,12.43
2019-01-30T11:47:31.550Z,12.53
2019-01-30T11:50:00.279Z,13.30
2019-01-30T11:52:29.068Z,13.43
2019-01-30T11:54:57.831Z,12.77
2019-01-30T11:57:26.659Z,13.93
2019-01-30T11:59:55.539Z,14.43
2019-01-30T12:02:24.283Z,13.63
2019-01-30T12:04:53.108Z,13.17
2019-01-30T12:07:21.850Z,14.07
2019-01-30T12:09:50.630Z,13.37
2019-01-30T12:12:19.618Z,13.33
2019-01-30T12:14:48.544Z,12.77
2019-01-30T12:17:17.675Z,12.93
2019-01-30T12:19:46.725Z,14.73
2019-01-30T12:22:15.710Z,12.93
2019-01-30T12:24:44.489Z,14.13
2019-01-30T12:27:13.631Z,16.07
2019-01-30T12:29:42.480Z,15.70
2019-01-30T12:32:11.264Z,14.73
2019-01-30T12:34:40.173Z,12.53
2019-01-30T12:37:10.491Z,13.70
2019-01-30T12:39:39.302Z,16.12
2019-01-30T12:42:08.227Z,14.63
2019-01-30T12:44:39.806Z,14.57
2019-01-30T12:47:19.847Z,13.47
2019-01-30T12:49:43.686Z,14.97
2019-01-30T12:52:12.516Z,13.93
2019-01-30T12:54:41.770Z,12.70
2019-01-30T12:57:10.588Z,12.33
2019-01-30T13:02:10.241Z,14.37
2019-01-30T13:04:39.213Z,12.40
2019-01-30T13:07:08.081Z,13.40
2019-01-30T13:09:38.958Z,14.43
2019-01-30T13:12:07.753Z,13.93
2019-01-30T13:14:36.502Z,15.50
2019-01-30T13:17:05.375Z,14.83
2019-01-30T13:19:34.256Z,14.63
2019-01-30T13:22:03.125Z,16.90
2019-01-30T13:24:32.036Z,15.60
2019-01-30T13:27:01.047Z,14.13
2019-01-30T13:29:29.950Z,14.10
2019-01-30T13:31:58.689Z,15.90
2019-01-30T13:34:27.533Z,14.63
2019-01-30T13:36:56.250Z,13.57
2019-01-30T13:39:25.016Z,14.07
2019-01-30T13:41:53.795Z,15.60
2019-01-30T13:44:22.833Z,13.87
2019-01-30T13:46:51.559Z,12.70
2019-01-30T13:49:20.327Z,12.73
2019-01-30T13:51:49.201Z,11.47
2019-01-30T13:54:18.090Z,13.13
2019-01-30T13:56:46.877Z,12.80
2019-01-30T13:59:15.667Z,12.63
2019-01-30T14:01:44.519Z,12.87
2019-01-30T14:04:13.349Z,12.53
2019-01-30T14:06:42.214Z,13.67
2019-01-30T14:09:11.277Z,14.23
2019-01-30T14:11:40.116Z,14.43
2019-01-30T14:14:08.934Z,14.70
2019-01-30T14:16:37.751Z,13.70
2019-01-30T14:19:06.573Z,14.97
2019-01-30T14:21:35.389Z,14.70
2019-01-30T14:24:04.253Z,13.57
2019-01-30T14:26:52.507Z,14.20
2019-01-30T14:29:21.395Z,13.57
2019-01-30T14:31:50.131Z,13.17
2019-01-30T14:34:18.953Z,15.30
2019-01-30T14:36:47.693Z,14.73
2019-01-30T14:39:16.507Z,14.60
2019-01-30T14:41:45.343Z,15.50
2019-01-30T14:44:14.195Z,15.87
2019-01-30T14:46:43.035Z,14.27
2019-01-30T14:49:11.842Z,13.40
2019-01-30T14:51:40.622Z,13.03
2019-01-30T14:54:09.370Z,12.63
2019-01-30T14:56:38.176Z,14.07
2019-01-30T14:59:06.973Z,12.80
2019-01-30T15:01:36.083Z,13.70
2019-01-30T15:04:04.959Z,13.07
2019-01-30T15:06:33.722Z,15.13
2019-01-30T15:09:03.053Z,14.20
2019-01-30T15:11:31.848Z,13.73
2019-01-30T15:14:00.631Z,13.23
2019-01-30T15:16:29.404Z,14.67
2019-01-30T15:18:58.216Z,18.97
2019-01-30T15:21:26.992Z,18.40
2019-01-30T15:23:55.965Z,16.20
2019-01-30T15:26:25.890Z,15.70
2019-01-30T15:28:55.015Z,14.57
2019-01-30T15:31:23.814Z,16.13
2019-01-30T15:33:52.600Z,14.50
2019-01-30T15:36:21.529Z,15.17
2019-01-30T15:38:50.371Z,15.63
2019-01-30T15:41:19.118Z,16.10
2019-01-30T15:43:47.893Z,17.70
2019-01-30T15:46:17.142Z,19.05
2019-01-30T15:48:45.899Z,19.10
2019-01-30T15:51:14.708Z,17.47
2019-01-30T15:54:07.762Z,19.43
2019-01-30T15:56:36.632Z,20.93
2019-01-30T15:59:06.441Z,20.80
2019-01-30T16:01:39.573Z,20.07
2019-01-30T16:04:10.408Z,19.50
2019-01-30T16:06:38.992Z,20.40
2019-01-30T16:09:08.611Z,21.17
2019-01-30T16:11:37.438Z,22.80
2019-01-30T16:14:06.218Z,23.97
2019-01-30T16:16:35.109Z,22.60
2019-01-30T16:19:03.997Z,22.53
2019-01-30T16:21:32.821Z,23.83
2019-01-30T16:24:01.608Z,25.23
2019-01-30T16:26:30.393Z,25.33
2019-01-30T16:28:59.215Z,25.43
2019-01-30T16:31:28.042Z,24.73
2019-01-30T16:41:21.196Z,25.17
2019-01-30T16:43:49.960Z,26.90
2019-01-30T16:46:18.771Z,25.97
2019-01-30T16:48:47.649Z,26.20
2019-01-30T16:51:16.419Z,26.77
2019-01-30T16:53:45.242Z,25.33
2019-01-30T16:56:14.026Z,24.30
2019-01-30T16:58:42.869Z,29.47
2019-01-30T17:01:11.670Z,24.67
2019-01-30T17:03:40.561Z,26.30
2019-01-30T17:06:09.457Z,28.93
2019-01-30T17:08:38.255Z,28.10
2019-01-30T17:11:07.045Z,26.93
2019-01-30T17:13:35.804Z,27.53
2019-01-30T17:16:07.748Z,29.07
2019-01-30T17:18:40.281Z,27.33
2019-01-30T17:21:09.140Z,26.30
2019-01-30T17:23:37.979Z,25.93
2019-01-30T17:26:08.440Z,24.50
2019-01-30T17:28:37.341Z,23.67
2019-01-30T17:33:52.668Z,21.63
2019-01-30T17:36:25.086Z,21.37
2019-01-30T17:38:54.293Z,23.00
2019-01-30T17:41:23.097Z,22.40
2019-01-30T17:43:57.196Z,22.67
2019-01-30T17:46:45.548Z,21.67
2019-01-30T17:49:14.345Z,22.43
2019-01-30T17:51:43.195Z,27.73
2019-01-30T17:54:12.874Z,24.30
2019-01-30T17:56:41.771Z,23.43
2019-01-30T17:59:17.399Z,24.20
2019-01-30T18:01:50.100Z,19.70
2019-01-30T18:04:18.918Z,20.03
2019-01-30T18:06:47.772Z,19.67
2019-01-30T18:09:16.614Z,20.60
2019-01-30T18:11:45.486Z,20.30
2019-01-30T18:14:14.224Z,23.42
2019-01-30T18:16:43.080Z,22.40
2019-01-30T18:19:11.998Z,20.37
2019-01-30T18:21:41.040Z,19.17
2019-01-30T18:24:09.841Z,19.27
2019-01-30T18:26:38.662Z,18.87
2019-01-30T18:29:07.471Z,18.27
2019-01-30T18:31:36.220Z,18.47
2019-01-30T18:34:05.099Z,20.17
2019-01-30T18:36:40.762Z,18.27
2019-01-30T18:39:06.343Z,19.23
2019-01-30T18:41:35.149Z,19.00
2019-01-30T18:44:04.011Z,19.83
2019-01-30T18:46:35.142Z,17.90
2019-01-30T18:49:04.086Z,19.63
2019-01-30T18:51:33.385Z,17.73
2019-01-30T18:54:02.169Z,22.55
2019-01-30T18:56:30.946Z,19.30
2019-01-30T18:58:59.823Z,18.90
2019-01-30T19:01:28.622Z,17.90
2019-01-30T19:06:25.484Z,17.77
2019-01-30T19:08:54.914Z,17.57
2019-01-30T19:13:51.914Z,16.67
2019-01-30T19:16:20.737Z,17.53
2019-01-30T19:18:49.514Z,17.20
2019-01-30T19:21:18.323Z,14.80
2019-01-30T19:23:47.151Z,12.33
2019-01-30T19:26:15.989Z,12.10
2019-01-30T19:28:44.791Z,10.63
2019-01-30T19:31:13.595Z,10.27
2019-01-30T19:33:42.381Z,10.50
2019-01-30T19:36:11.142Z,9.93
2019-01-30T19:38:39.942Z,10.60
2019-01-30T19:41:08.735Z,10.87
2019-01-30T19:43:37.524Z,10.03
2019-01-30T19:46:06.330Z,9.07
2019-01-30T19:48:35.134Z,8.90
2019-01-30T19:51:04.069Z,8.73
2019-01-30T19:53:32.824Z,7.87
2019-01-30T19:56:00.941Z,8.10
2019-01-30T19:58:29.798Z,8.10
2019-01-30T20:00:58.630Z,7.70
2019-01-30T20:03:31.206Z,7.63
2019-01-30T20:05:59.872Z,7.83
2019-01-30T20:08:28.703Z,7.57
2019-01-30T20:10:57.509Z,6.77
2019-01-30T20:13:26.404Z,6.90
2019-01-30T20:15:55.236Z,7.03
2019-01-30T20:18:24.014Z,6.70
2019-01-30T20:20:52.762Z,7.17
2019-01-30T20:23:21.614Z,6.80
2019-01-30T20:25:50.561Z,6.63
2019-01-30T20:28:19.534Z,5.90
2019-01-30T20:30:48.297Z,6.03
2019-01-30T20:33:17.056Z,5.67
2019-01-30T20:35:48.023Z,6.40
2019-01-30T20:38:16.848Z,5.93
2019-01-30T20:40:45.681Z,6.87
2019-01-30T20:43:14.553Z,6.30
2019-01-30T20:45:43.333Z,6.27
2019-01-30T20:48:12.139Z,6.87
2019-01-30T20:50:40.949Z,6.50
2019-01-30T20:53:09.796Z,6.00
2019-01-30T20:55:38.581Z,6.33
2019-01-30T20:58:07.327Z,6.10
2019-01-30T21:00:37.217Z,5.50
2019-01-30T21:03:06.337Z,6.23
2019-01-30T21:05:35.124Z,6.33
2019-01-30T21:08:04.507Z,6.83
2019-01-30T21:10:34.432Z,7.80
2019-01-30T21:13:03.268Z,8.30
2019-01-30T21:15:32.037Z,8.83
2019-01-30T21:18:00.809Z,7.30
2019-01-30T21:20:29.667Z,8.95
2019-01-30T21:22:58.435Z,6.40
2019-01-30T21:25:27.289Z,5.60
2019-01-30T21:27:56.033Z,5.80
2019-01-30T21:30:25.947Z,5.80
2019-01-30T21:32:54.724Z,6.33
2019-01-30T21:35:23.525Z,4.87
2019-01-30T21:37:52.387Z,5.50
2019-01-30T21:42:49.578Z,5.83
2019-01-30T21:45:19.016Z,6.40
2019-01-30T21:47:47.742Z,5.40
2019-01-30T21:50:16.799Z,6.57
2019-01-30T21:52:45.618Z,5.60
2019-01-30T21:55:15.552Z,5.40
2019-01-30T21:57:44.279Z,5.20
2019-01-30T22:00:14.837Z,5.72
2019-01-30T22:02:43.741Z,5.13
2019-01-30T22:05:12.461Z,6.00
2019-01-30T22:07:41.284Z,4.97
2019-01-30T22:10:11.830Z,4.90
2019-01-30T22:12:40.888Z,4.40
2019-01-30T22:15:10.180Z,4.63
2019-01-30T22:17:38.883Z,5.37
2019-01-30T22:20:09.269Z,4.93
2019-01-30T22:22:37.986Z,4.37
2019-01-30T22:25:07.400Z,5.37
2019-01-30T22:27:36.163Z,4.73
2019-01-30T22:30:06.869Z,4.47
2019-01-30T22:32:35.579Z,5.10
2019-01-30T22:35:04.926Z,4.80
2019-01-30T22:37:33.630Z,5.07
2019-01-30T22:40:02.401Z,4.80
2019-01-30T22:42:31.121Z,4.67
2019-01-30T22:47:27.887Z,5.37
2019-01-30T22:49:56.614Z,4.47
2019-01-30T22:52:25.334Z,4.47
2019-01-30T22:54:54.099Z,4.30
2019-01-30T22:57:22.824Z,5.17
2019-01-30T23:02:20.558Z,4.13
2019-01-30T23:08:04.274Z,4.40
2019-01-30T23:10:52.079Z,4.07
2019-01-30T23:13:52.214Z,4.30
2019-01-30T23:16:43.063Z,3.90
2019-01-30T23:19:30.966Z,4.47
2019-01-30T23:22:18.811Z,4.17
2019-01-30T23:25:15.937Z,4.10
2019-01-30T23:28:03.750Z,3.80
2019-01-30T23:30:50.406Z,4.10
2019-01-30T23:33:40.977Z,3.40
2019-01-30T23:36:16.654Z,3.67
2019-01-30T23:39:05.258Z,4.37
2019-01-30T23:41:40.826Z,4.10
2019-01-30T23:44:15.538Z,4.53
2019-01-30T23:47:02.473Z,4.40
2019-01-30T23:49:49.205Z,4.00
2019-01-30T23:52:25.653Z,3.67
2019-01-30T23:55:01.053Z,3.50
2019-01-30T23:58:00.761Z,4.23
